Pangnirtung, Canada
Current Conditions -  °F | °C
As of 6:00 AM on Tuesday 27 Jan 2015 (Local Time) from CYVM Reporting Station
Clear Clear  
Wind Chill: -60°   Ceiling: Unl
Heat Index: -33°   Visibility: 9mi
Dew Point: -44°   Wind: 14mph
Humidity: 56%   Direction: 210°SSW
Pressure: 29.58"   Gusts: NA
Location:  66.15°N, 65.69°W
Report Text: CYVM 271000Z AUTO 21012KT 9SM CLR M36/M42 A2958 RMK SLP016
Loading
Personal Weather Stations






























Interactive Weather Map New forecast layout! Learn more

10-Day Weather Forecast

Advertisements
Track Severe Weather on mobile